Terminal Aerodrome Forecast
Issued by NWS

Home | Current Version | Previous Version | Text Only | Print | Product List | Glossary On
Versions: 1 2 3 4 5 6 7 8 9 10 11 12 13 14 15 16 17 18 19
000
FTUS46 KPDT 241100 CCA
TAFPSC
TAF COR
KPSC 241147Z 2412/2512 20011KT P6SM -SHRA BKN060 OVC080
     FM241400 22014KT P6SM VCSH BKN050 OVC070
     FM241700 23018G25KT P6SM -SHRA BKN050 OVC070
     FM242000 24020G28KT P6SM -SHRA VCTS SCT060CB BKN080
     FM250200 23011KT P6SM BKN100=

USA.gov is the U.S. government's official web portal to all federal, state and local government web resources and services.